Terminal Aerodrome Forecast
Issued by NWS

Home | Current Version | Previous Version | Text Only | Print | Product List | Glossary On
Versions: 1 2 3 4 5 6 7 8 9 10 11 12
000
FTUS44 KTSA 292300
TAFRVS
TAF
KRVS 292320Z 3000/3024 00000KT P6SM BKN080
     FM301200 11003KT P6SM VCSH OVC100
      TEMPO 3012/3016 3SM -RA OVC050
     FM301600 VRB03KT P6SM -RA OVC080
      TEMPO 3016/3020 3SM -RA OVC050
     FM302000 12007KT 3SM -RA BR BKN025=

USA.gov is the U.S. government's official web portal to all federal, state and local government web resources and services.